createdAt,value
2022-08-01T00:00:30.517Z,20.20
2022-08-01T00:03:18.646Z,20.10
2022-08-01T00:06:06.526Z,20.50
2022-08-01T00:08:54.934Z,20.10
2022-08-01T00:11:44.213Z,20.10
2022-08-01T00:14:33.387Z,21.70
2022-08-01T00:17:21.701Z,19.50
2022-08-01T00:20:11.091Z,20.10
2022-08-01T00:23:02.426Z,20.00
2022-08-01T00:25:50.644Z,20.00
2022-08-01T00:28:38.257Z,20.00
2022-08-01T00:31:27.273Z,20.00
2022-08-01T00:34:19.580Z,20.00
2022-08-01T00:37:08.633Z,20.00
2022-08-01T00:40:00.938Z,19.90
2022-08-01T00:42:49.259Z,19.90
2022-08-01T00:45:36.856Z,19.90
2022-08-01T00:48:25.664Z,19.80
2022-08-01T00:51:18.419Z,19.90
2022-08-01T00:54:06.165Z,19.90
2022-08-01T00:56:54.704Z,19.80
2022-08-01T00:59:45.220Z,19.80
2022-08-01T01:02:37.003Z,19.80
2022-08-01T01:05:26.787Z,19.70
2022-08-01T01:08:16.580Z,19.70
2022-08-01T01:11:11.495Z,19.60
2022-08-01T01:14:06.204Z,19.60
2022-08-01T01:16:54.303Z,19.60
2022-08-01T01:19:44.562Z,19.60
2022-08-01T01:22:39.807Z,19.50
2022-08-01T01:25:41.956Z,19.60
2022-08-01T01:28:38.079Z,19.60
2022-08-01T01:31:28.785Z,19.60
2022-08-01T01:34:20.920Z,19.90
2022-08-01T01:37:11.402Z,19.60
2022-08-01T01:40:00.459Z,19.40
2022-08-01T01:42:49.016Z,19.50
2022-08-01T01:45:39.499Z,19.40
2022-08-01T01:48:29.897Z,19.80
2022-08-01T01:51:17.508Z,19.50
2022-08-01T01:54:06.721Z,19.40
2022-08-01T01:56:54.944Z,20.30
2022-08-01T01:59:43.660Z,19.60
2022-08-01T02:02:31.608Z,19.70
2022-08-01T02:05:20.933Z,19.50
2022-08-01T02:08:10.240Z,17.90
2022-08-01T02:11:16.956Z,19.50
2022-08-01T02:14:05.949Z,19.60
2022-08-01T02:16:54.235Z,20.00
2022-08-01T02:19:44.022Z,19.50
2022-08-01T02:22:43.514Z,19.50
2022-08-01T02:25:35.442Z,19.60
2022-08-01T02:28:29.257Z,19.50
2022-08-01T02:31:20.298Z,19.50
2022-08-01T02:34:09.052Z,19.50
2022-08-01T02:36:58.540Z,19.60
2022-08-01T02:39:50.158Z,19.50
2022-08-01T02:42:40.780Z,19.50
2022-08-01T02:45:29.706Z,19.40
2022-08-01T02:48:19.677Z,19.50
2022-08-01T02:51:09.105Z,19.50
2022-08-01T02:53:59.158Z,19.50
2022-08-01T02:56:52.518Z,19.50
2022-08-01T02:59:41.409Z,19.50
2022-08-01T03:02:31.528Z,19.50
2022-08-01T03:05:20.199Z,19.40
2022-08-01T03:08:14.531Z,19.40
2022-08-01T03:11:04.668Z,19.40
2022-08-01T03:13:54.386Z,19.40
2022-08-01T03:16:44.726Z,19.40
2022-08-01T03:19:33.393Z,19.40
2022-08-01T03:22:24.190Z,19.40
2022-08-01T03:25:13.821Z,19.30
2022-08-01T03:28:04.280Z,19.30
2022-08-01T03:31:00.897Z,19.30
2022-08-01T03:33:48.508Z,19.30
2022-08-01T03:36:40.770Z,19.20
2022-08-01T03:39:34.160Z,19.20
2022-08-01T03:42:31.175Z,19.30
2022-08-01T03:45:21.737Z,19.20
2022-08-01T03:48:15.852Z,19.10
2022-08-01T03:51:04.101Z,19.10
2022-08-01T03:53:52.758Z,19.10
2022-08-01T03:56:40.848Z,19.10
2022-08-01T03:59:29.626Z,19.10
2022-08-01T04:02:19.210Z,19.00
2022-08-01T04:05:13.648Z,18.90
2022-08-01T04:08:10.201Z,18.90
2022-08-01T04:10:59.712Z,19.10
2022-08-01T04:13:48.781Z,18.80
2022-08-01T04:16:36.773Z,18.70
2022-08-01T04:19:27.394Z,18.60
2022-08-01T04:22:17.334Z,18.50
2022-08-01T04:25:07.262Z,18.40
2022-08-01T04:27:55.567Z,18.40
2022-08-01T04:30:42.988Z,18.40
2022-08-01T04:33:32.533Z,18.30
2022-08-01T04:36:22.204Z,18.30
2022-08-01T04:39:12.907Z,18.30
2022-08-01T04:42:01.813Z,18.30
2022-08-01T04:44:55.428Z,18.30
2022-08-01T04:47:48.854Z,18.30
2022-08-01T04:50:43.237Z,18.20
2022-08-01T04:53:33.450Z,18.30
2022-08-01T04:56:22.421Z,18.30
2022-08-01T04:59:27.697Z,18.30
2022-08-01T05:02:19.159Z,18.30
2022-08-01T05:05:07.887Z,18.30
2022-08-01T05:07:56.994Z,18.30
2022-08-01T05:10:45.022Z,18.30
2022-08-01T05:13:36.138Z,18.30
2022-08-01T05:16:24.358Z,18.30
2022-08-01T05:19:11.905Z,18.30
2022-08-01T05:22:02.427Z,18.30
2022-08-01T05:24:50.553Z,18.30
2022-08-01T05:27:40.615Z,18.30
2022-08-01T05:30:30.289Z,18.30
2022-08-01T05:33:17.572Z,18.40
2022-08-01T05:36:05.436Z,18.50
2022-08-01T05:38:52.996Z,18.50
2022-08-01T05:41:41.351Z,18.60
2022-08-01T05:44:29.105Z,18.60
2022-08-01T05:47:18.948Z,18.60
2022-08-01T05:50:07.235Z,18.60
2022-08-01T05:52:55.065Z,18.60
2022-08-01T05:55:42.395Z,19.40
2022-08-01T05:58:32.971Z,18.90
2022-08-01T06:01:20.865Z,18.90
2022-08-01T06:04:09.727Z,19.00
2022-08-01T06:06:59.828Z,18.80
2022-08-01T06:09:47.957Z,18.90
2022-08-01T06:12:35.966Z,19.10
2022-08-01T06:15:24.254Z,19.20
2022-08-01T06:18:14.744Z,19.40
2022-08-01T06:21:07.510Z,19.10
2022-08-01T06:23:56.447Z,19.20
2022-08-01T06:26:45.008Z,19.20
2022-08-01T06:29:36.012Z,19.30
2022-08-01T06:32:26.767Z,19.50
2022-08-01T06:35:16.467Z,19.70
2022-08-01T06:38:06.893Z,20.10
2022-08-01T06:40:54.662Z,19.90
2022-08-01T06:43:50.706Z,18.20
2022-08-01T06:46:43.501Z,20.10
2022-08-01T06:49:31.672Z,20.60
2022-08-01T06:52:19.921Z,20.20
2022-08-01T06:55:10.496Z,20.30
2022-08-01T06:57:58.058Z,20.40
2022-08-01T07:00:46.125Z,20.50
2022-08-01T07:03:54.062Z,20.50
2022-08-01T07:06:48.729Z,20.50
2022-08-01T07:09:38.454Z,20.50
2022-08-01T07:12:31.477Z,20.40
2022-08-01T07:15:21.835Z,20.30
2022-08-01T07:18:10.537Z,20.10
2022-08-01T07:20:58.880Z,20.00
2022-08-01T07:23:47.271Z,20.00
2022-08-01T07:26:35.114Z,20.10
2022-08-01T07:29:31.732Z,20.00
2022-08-01T07:32:22.676Z,20.10
2022-08-01T07:35:10.806Z,20.10
2022-08-01T07:37:58.143Z,20.20
2022-08-01T07:40:48.423Z,20.60
2022-08-01T07:43:38.070Z,20.10
2022-08-01T07:46:27.581Z,20.30
2022-08-01T07:49:17.014Z,19.60
2022-08-01T07:52:05.150Z,19.80
2022-08-01T07:54:57.866Z,20.40
2022-08-01T07:57:45.960Z,20.40
2022-08-01T08:00:34.674Z,20.40
2022-08-01T08:03:23.485Z,20.40
2022-08-01T08:06:12.243Z,20.30
2022-08-01T08:09:01.789Z,20.50
2022-08-01T08:11:51.413Z,20.50
2022-08-01T08:14:42.775Z,20.60
2022-08-01T08:17:42.295Z,20.80
2022-08-01T08:20:32.300Z,20.90
2022-08-01T08:23:42.954Z,21.00
2022-08-01T08:26:31.573Z,21.10
2022-08-01T08:29:23.425Z,21.30
2022-08-01T08:32:15.343Z,21.40
2022-08-01T08:35:03.819Z,21.40
2022-08-01T08:37:56.083Z,21.50
2022-08-01T08:40:47.043Z,21.60
2022-08-01T08:43:36.590Z,21.80
2022-08-01T08:46:28.115Z,21.80
2022-08-01T08:49:18.357Z,22.00
2022-08-01T08:52:08.909Z,22.00
2022-08-01T08:55:02.026Z,21.90
2022-08-01T08:57:49.920Z,22.10
2022-08-01T09:00:37.451Z,22.30
2022-08-01T09:03:25.169Z,22.30
2022-08-01T09:06:13.343Z,22.30
2022-08-01T09:09:01.440Z,22.20
2022-08-01T09:11:57.623Z,21.90
2022-08-01T09:14:51.388Z,22.10
2022-08-01T09:17:42.921Z,22.10
2022-08-01T09:20:33.140Z,22.30
2022-08-01T09:23:33.470Z,22.70
2022-08-01T09:26:25.265Z,22.90
2022-08-01T09:29:37.070Z,23.10
2022-08-01T09:32:31.457Z,23.30
2022-08-01T09:35:30.955Z,23.10
2022-08-01T09:38:21.086Z,23.10
2022-08-01T09:41:09.164Z,23.00
2022-08-01T09:44:04.507Z,22.70
2022-08-01T09:47:07.394Z,22.60
2022-08-01T09:50:10.197Z,22.60
2022-08-01T09:52:59.103Z,22.80
2022-08-01T09:55:53.576Z,22.90
2022-08-01T09:58:59.949Z,23.10
2022-08-01T10:01:54.210Z,23.30
2022-08-01T10:05:03.183Z,23.40
2022-08-01T10:07:59.516Z,23.40
2022-08-01T10:11:08.562Z,23.10
2022-08-01T10:13:57.162Z,23.10
2022-08-01T10:16:45.481Z,23.20
2022-08-01T10:19:33.825Z,23.30
2022-08-01T10:22:25.751Z,23.40
2022-08-01T10:25:18.543Z,23.50
2022-08-01T10:28:27.398Z,23.30
2022-08-01T10:31:15.637Z,23.40
2022-08-01T10:34:04.134Z,23.60
2022-08-01T10:36:52.920Z,23.60
2022-08-01T10:39:43.097Z,23.60
2022-08-01T10:42:33.049Z,23.80
2022-08-01T10:45:28.133Z,24.10
2022-08-01T10:48:21.867Z,24.30
2022-08-01T10:51:18.218Z,24.40
2022-08-01T10:54:09.897Z,24.20
2022-08-01T10:57:02.150Z,25.50
2022-08-01T11:00:01.214Z,23.80
2022-08-01T11:03:02.210Z,24.40
2022-08-01T11:05:54.580Z,24.20
2022-08-01T11:08:42.892Z,24.20
2022-08-01T11:11:37.651Z,24.20
2022-08-01T11:14:53.595Z,24.30
2022-08-01T11:17:41.862Z,24.30
2022-08-01T11:20:32.719Z,24.30
2022-08-01T11:23:25.747Z,24.30
2022-08-01T11:26:29.180Z,24.40
2022-08-01T11:29:21.674Z,24.60
2022-08-01T11:32:52.555Z,24.50
2022-08-01T11:35:59.201Z,24.50
2022-08-01T11:38:55.524Z,24.90
2022-08-01T11:41:45.476Z,25.20
2022-08-01T11:44:50.600Z,25.40
2022-08-01T11:47:52.336Z,24.30
2022-08-01T11:50:45.854Z,25.30
2022-08-01T11:53:38.638Z,25.60
2022-08-01T11:56:40.226Z,26.00
2022-08-01T11:59:41.367Z,26.00
2022-08-01T12:02:37.997Z,26.40
2022-08-01T12:05:32.487Z,26.30
2022-08-01T12:08:27.430Z,25.20
2022-08-01T12:11:18.368Z,25.80
2022-08-01T12:14:09.135Z,25.60
2022-08-01T12:16:57.854Z,25.40
2022-08-01T12:19:54.676Z,25.80
2022-08-01T12:22:49.445Z,26.10
2022-08-01T12:25:38.635Z,27.60
2022-08-01T12:28:31.371Z,25.80
2022-08-01T12:31:18.882Z,25.50
2022-08-01T12:34:24.177Z,25.40
2022-08-01T12:37:14.955Z,23.80
2022-08-01T12:40:13.841Z,25.20
2022-08-01T12:43:06.804Z,25.20
2022-08-01T12:45:57.379Z,25.30
2022-08-01T12:48:47.405Z,25.20
2022-08-01T12:51:35.059Z,25.20
2022-08-01T12:54:23.848Z,25.40
2022-08-01T12:57:25.980Z,25.50
2022-08-01T13:00:25.344Z,25.50
2022-08-01T13:03:15.608Z,25.30
2022-08-01T13:06:16.860Z,25.30
2022-08-01T13:09:12.586Z,25.20
2022-08-01T13:12:04.255Z,25.40
2022-08-01T13:14:56.414Z,25.70
2022-08-01T13:17:48.211Z,25.00
2022-08-01T13:20:36.535Z,26.20
2022-08-01T13:24:01.637Z,25.80
2022-08-01T13:26:41.940Z,25.60
2022-08-01T13:29:36.550Z,25.70
2022-08-01T13:32:28.231Z,26.80
2022-08-01T13:35:17.753Z,26.00
2022-08-01T13:38:07.121Z,26.20
2022-08-01T13:41:03.441Z,26.20
2022-08-01T13:43:58.580Z,26.20
2022-08-01T13:46:49.709Z,26.10
2022-08-01T13:49:41.314Z,25.90
2022-08-01T13:52:33.539Z,27.20
2022-08-01T13:55:34.904Z,25.90
2022-08-01T13:58:25.978Z,25.90
2022-08-01T14:01:14.228Z,26.20
2022-08-01T14:04:09.263Z,26.70
2022-08-01T14:07:04.280Z,27.10
2022-08-01T14:10:18.861Z,27.10
2022-08-01T14:13:07.477Z,26.80
2022-08-01T14:15:59.402Z,26.60
2022-08-01T14:18:47.399Z,26.60
2022-08-01T14:21:35.615Z,26.70
2022-08-01T14:24:26.332Z,25.80
2022-08-01T14:27:19.026Z,25.70
2022-08-01T14:30:06.999Z,25.80
2022-08-01T14:32:55.366Z,25.80
2022-08-01T14:36:01.916Z,25.90
2022-08-01T14:38:52.443Z,25.80
2022-08-01T14:41:41.480Z,26.00
2022-08-01T14:44:33.049Z,26.20
2022-08-01T14:47:22.490Z,26.40
2022-08-01T14:50:14.959Z,26.30
2022-08-01T14:53:03.318Z,26.40
2022-08-01T14:55:51.205Z,26.50
2022-08-01T14:58:41.050Z,26.30
2022-08-01T15:01:28.954Z,26.30
2022-08-01T15:04:19.425Z,26.30
2022-08-01T15:07:10.239Z,26.40
2022-08-01T15:09:57.694Z,26.20
2022-08-01T15:12:50.522Z,26.40
2022-08-01T15:15:40.121Z,26.30
2022-08-01T15:18:34.212Z,26.40
2022-08-01T15:21:40.699Z,26.40
2022-08-01T15:24:29.396Z,26.10
2022-08-01T15:27:21.224Z,26.60
2022-08-01T15:30:11.976Z,26.80
2022-08-01T15:33:00.967Z,26.70
2022-08-01T15:35:49.297Z,26.70
2022-08-01T15:38:43.002Z,26.70
2022-08-01T15:41:30.775Z,26.60
2022-08-01T15:44:21.359Z,26.60
2022-08-01T15:47:13.091Z,26.50
2022-08-01T15:50:04.463Z,26.50
2022-08-01T15:52:52.055Z,26.20
2022-08-01T15:55:40.664Z,26.10
2022-08-01T15:58:30.805Z,26.20
2022-08-01T16:01:20.017Z,26.30
2022-08-01T16:04:08.971Z,27.90
2022-08-01T16:06:59.962Z,26.20
2022-08-01T16:09:47.436Z,26.30
2022-08-01T16:12:41.245Z,26.40
2022-08-01T16:15:36.442Z,26.30
2022-08-01T16:18:25.515Z,26.50
2022-08-01T16:21:14.038Z,26.40
2022-08-01T16:24:03.954Z,26.30
2022-08-01T16:26:55.219Z,26.20
2022-08-01T16:29:43.395Z,26.20
2022-08-01T16:32:40.827Z,26.10
2022-08-01T16:35:36.446Z,26.20
2022-08-01T16:38:25.961Z,26.20
2022-08-01T16:41:19.726Z,26.00
2022-08-01T16:44:08.864Z,25.90
2022-08-01T16:46:59.830Z,25.70
2022-08-01T16:49:50.912Z,25.70
2022-08-01T16:52:42.213Z,25.80
2022-08-01T16:55:42.615Z,25.90
2022-08-01T16:58:45.761Z,25.90
2022-08-01T17:01:57.930Z,25.90
2022-08-01T17:04:44.720Z,26.60
2022-08-01T17:07:32.899Z,25.60
2022-08-01T17:10:23.022Z,25.70
2022-08-01T17:13:13.695Z,25.70
2022-08-01T17:16:03.543Z,25.70
2022-08-01T17:18:51.943Z,25.80
2022-08-01T17:21:41.504Z,25.60
2022-08-01T17:24:34.011Z,25.60
2022-08-01T17:27:25.680Z,25.60
2022-08-01T17:30:17.976Z,25.60
2022-08-01T17:33:09.884Z,25.50
2022-08-01T17:35:57.482Z,25.70
2022-08-01T17:38:48.281Z,25.50
2022-08-01T17:41:37.548Z,25.60
2022-08-01T17:44:27.706Z,25.30
2022-08-01T17:47:29.018Z,25.30
2022-08-01T17:50:24.838Z,25.50
2022-08-01T17:53:12.623Z,25.30
2022-08-01T17:56:01.762Z,25.20
2022-08-01T17:58:52.258Z,25.30
2022-08-01T18:01:45.246Z,25.30
2022-08-01T18:04:36.906Z,25.20
2022-08-01T18:08:00.937Z,25.30
2022-08-01T18:10:47.257Z,24.30
2022-08-01T18:13:34.861Z,25.20
2022-08-01T18:16:25.754Z,25.20
2022-08-01T18:19:13.308Z,25.50
2022-08-01T18:22:02.002Z,25.10
2022-08-01T18:24:51.136Z,25.00
2022-08-01T18:28:25.607Z,24.80
2022-08-01T18:30:51.065Z,24.80
2022-08-01T18:33:45.252Z,24.70
2022-08-01T18:36:34.600Z,24.60
2022-08-01T18:39:23.434Z,24.50
2022-08-01T18:42:16.666Z,24.40
2022-08-01T18:45:16.323Z,24.30
2022-08-01T18:48:05.453Z,24.20
2022-08-01T18:50:54.199Z,24.00
2022-08-01T18:53:47.049Z,24.00
2022-08-01T18:56:38.907Z,23.90
2022-08-01T18:59:27.659Z,23.80
2022-08-01T19:02:15.508Z,23.70
2022-08-01T19:05:06.741Z,22.90
2022-08-01T19:08:04.749Z,23.60
2022-08-01T19:11:00.494Z,23.30
2022-08-01T19:13:48.491Z,23.10
2022-08-01T19:16:37.595Z,23.00
2022-08-01T19:19:28.061Z,23.00
2022-08-01T19:22:16.850Z,22.70
2022-08-01T19:25:04.265Z,22.30
2022-08-01T19:27:51.856Z,22.20
2022-08-01T19:30:40.565Z,22.10
2022-08-01T19:33:31.360Z,21.90
2022-08-01T19:36:20.692Z,21.90
2022-08-01T19:39:10.283Z,21.70
2022-08-01T19:41:59.528Z,21.70
2022-08-01T19:44:48.152Z,21.60
2022-08-01T19:47:56.033Z,21.50
2022-08-01T19:50:47.765Z,21.50
2022-08-01T19:53:38.158Z,21.50
2022-08-01T19:56:27.388Z,21.40
2022-08-01T19:59:16.616Z,19.90
2022-08-01T20:02:04.714Z,21.30
2022-08-01T20:04:53.181Z,21.20
2022-08-01T20:07:43.610Z,21.10
2022-08-01T20:10:33.989Z,21.20
2022-08-01T20:13:21.443Z,21.10
2022-08-01T20:16:09.425Z,21.70
2022-08-01T20:19:02.999Z,20.80
2022-08-01T20:22:02.421Z,20.90
2022-08-01T20:24:56.138Z,20.90
2022-08-01T20:27:46.150Z,20.80
2022-08-01T20:30:34.403Z,20.80
2022-08-01T20:33:21.977Z,20.90
2022-08-01T20:36:25.580Z,20.70
2022-08-01T20:39:15.262Z,20.80
2022-08-01T20:42:05.182Z,20.60
2022-08-01T20:44:53.380Z,20.60
2022-08-01T20:47:41.418Z,20.40
2022-08-01T20:50:53.116Z,20.20
2022-08-01T20:53:43.973Z,20.00
2022-08-01T20:56:33.320Z,19.90
2022-08-01T20:59:39.895Z,19.70
2022-08-01T21:02:48.120Z,19.50
2022-08-01T21:05:55.934Z,19.60
2022-08-01T21:08:50.034Z,19.60
2022-08-01T21:11:41.042Z,19.60
2022-08-01T21:14:43.545Z,19.30
2022-08-01T21:17:39.130Z,19.30
2022-08-01T21:20:28.194Z,19.30
2022-08-01T21:23:22.633Z,19.20
2022-08-01T21:26:12.315Z,19.10
2022-08-01T21:29:02.380Z,19.20
2022-08-01T21:32:11.709Z,19.10
2022-08-01T21:35:00.244Z,19.10
2022-08-01T21:37:52.590Z,19.00
2022-08-01T21:40:40.987Z,18.90
2022-08-01T21:43:28.641Z,18.90
2022-08-01T21:46:17.403Z,19.20
2022-08-01T21:49:06.431Z,19.90
2022-08-01T21:51:58.770Z,18.80
2022-08-01T21:54:57.822Z,18.90
2022-08-01T21:57:57.138Z,18.80
2022-08-01T22:00:49.433Z,18.70
2022-08-01T22:03:39.758Z,18.70
2022-08-01T22:06:30.139Z,18.60
2022-08-01T22:09:18.388Z,18.50
2022-08-01T22:12:14.716Z,18.50
2022-08-01T22:15:06.851Z,18.50
2022-08-01T22:17:54.531Z,18.50
2022-08-01T22:20:42.798Z,18.50
2022-08-01T22:23:35.863Z,18.40
2022-08-01T22:26:28.667Z,18.40
2022-08-01T22:29:17.567Z,18.40
2022-08-01T22:32:05.512Z,18.10
2022-08-01T22:34:53.644Z,18.30
2022-08-01T22:37:57.086Z,18.20
2022-08-01T22:40:49.745Z,18.30
2022-08-01T22:43:40.629Z,18.20
2022-08-01T22:46:34.621Z,18.10
2022-08-01T22:49:28.354Z,18.20
2022-08-01T22:52:19.299Z,18.10
2022-08-01T22:55:08.575Z,18.10
2022-08-01T22:58:00.808Z,18.00
2022-08-01T23:00:49.964Z,17.90
2022-08-01T23:03:41.024Z,17.90
2022-08-01T23:06:33.802Z,17.90
2022-08-01T23:09:21.687Z,17.60
2022-08-01T23:12:11.177Z,17.80
2022-08-01T23:15:01.095Z,17.80
2022-08-01T23:17:50.099Z,17.60
2022-08-01T23:20:38.139Z,17.70
2022-08-01T23:23:31.178Z,17.70
2022-08-01T23:26:20.039Z,17.60
2022-08-01T23:29:08.333Z,17.60
2022-08-01T23:32:03.496Z,17.60
2022-08-01T23:34:51.605Z,17.30
2022-08-01T23:37:39.601Z,17.60
2022-08-01T23:40:28.054Z,17.40
2022-08-01T23:43:17.795Z,17.30
2022-08-01T23:46:05.805Z,17.30
2022-08-01T23:48:54.909Z,17.30
2022-08-01T23:51:42.184Z,17.30
2022-08-01T23:54:30.055Z,17.40
2022-08-01T23:57:21.259Z,17.30
